createdAt,value
2023-04-06T00:00:09.936Z,2.70
2023-04-06T00:02:38.561Z,3.45
2023-04-06T00:05:07.414Z,4.50
2023-04-06T00:07:36.472Z,2.97
2023-04-06T00:10:05.733Z,6.38
2023-04-06T00:12:35.244Z,3.92
2023-04-06T00:15:04.310Z,11.17
2023-04-06T00:17:32.875Z,10.35
2023-04-06T00:20:01.180Z,13.85
2023-04-06T00:22:29.296Z,13.27
2023-04-06T00:24:57.725Z,10.98
2023-04-06T00:27:26.202Z,11.02
2023-04-06T00:29:56.095Z,12.93
2023-04-06T00:32:24.280Z,14.95
2023-04-06T00:34:52.507Z,9.93
2023-04-06T00:37:21.437Z,6.25
2023-04-06T00:39:49.633Z,9.38
2023-04-06T00:42:19.200Z,10.97
2023-04-06T00:44:47.328Z,5.07
2023-04-06T00:47:17.197Z,5.90
2023-04-06T00:49:45.372Z,2.97
2023-04-06T00:52:13.797Z,4.97
2023-04-06T00:54:41.976Z,5.18
2023-04-06T00:57:10.691Z,4.75
2023-04-06T00:59:38.930Z,5.30
2023-04-06T01:02:07.488Z,4.20
2023-04-06T01:04:37.258Z,4.53
2023-04-06T01:07:05.439Z,4.57
2023-04-06T01:09:33.584Z,2.78
2023-04-06T01:12:01.806Z,4.33
2023-04-06T01:14:30.417Z,5.83
2023-04-06T01:17:01.419Z,4.13
2023-04-06T01:19:30.200Z,5.13
2023-04-06T01:21:59.724Z,2.73
2023-04-06T01:24:29.532Z,4.47
2023-04-06T01:26:58.526Z,3.00
2023-04-06T01:29:26.826Z,3.40
2023-04-06T01:31:55.339Z,3.90
2023-04-06T01:34:23.561Z,3.23
2023-04-06T01:36:52.272Z,4.60
2023-04-06T01:39:21.390Z,6.73
2023-04-06T01:41:51.456Z,4.10
2023-04-06T01:44:20.017Z,4.73
2023-04-06T01:46:48.448Z,3.67
2023-04-06T01:49:16.799Z,6.90
2023-04-06T01:51:44.930Z,4.30
2023-04-06T01:54:13.435Z,3.07
2023-04-06T01:56:42.009Z,4.10
2023-04-06T01:59:12.139Z,5.17
2023-04-06T02:01:40.405Z,2.77
2023-04-06T02:04:09.013Z,4.97
2023-04-06T02:06:37.124Z,4.23
2023-04-06T02:09:05.655Z,6.77
2023-04-06T02:11:33.979Z,4.97
2023-04-06T02:14:02.533Z,5.23
2023-04-06T02:16:32.400Z,4.17
2023-04-06T02:19:00.633Z,3.93
2023-04-06T02:21:28.817Z,4.60
2023-04-06T02:23:57.375Z,6.53
2023-04-06T02:26:25.527Z,6.43
2023-04-06T02:28:53.654Z,3.63
2023-04-06T02:31:22.133Z,3.57
2023-04-06T02:33:51.660Z,3.93
2023-04-06T02:36:20.240Z,5.27
2023-04-06T02:38:48.359Z,5.00
2023-04-06T02:41:16.538Z,4.17
2023-04-06T02:43:44.987Z,4.87
2023-04-06T02:46:13.179Z,7.73
2023-04-06T02:48:41.804Z,4.97
2023-04-06T02:51:11.326Z,3.70
2023-04-06T02:53:39.753Z,4.67
2023-04-06T02:56:08.578Z,5.50
2023-04-06T02:58:37.166Z,4.17
2023-04-06T03:01:06.003Z,5.07
2023-04-06T03:03:34.330Z,5.53
2023-04-06T03:06:02.550Z,3.47
2023-04-06T03:08:32.551Z,3.53
2023-04-06T03:11:00.834Z,4.00
2023-04-06T03:13:29.307Z,3.27
2023-04-06T03:15:57.463Z,4.33
2023-04-06T03:18:27.390Z,5.70
2023-04-06T03:20:55.977Z,3.90
2023-04-06T03:23:24.531Z,3.77
2023-04-06T03:25:54.036Z,3.23
2023-04-06T03:28:22.748Z,3.87
2023-04-06T03:30:51.605Z,3.17
2023-04-06T03:33:19.753Z,6.17
2023-04-06T03:35:47.924Z,4.93
2023-04-06T03:38:16.392Z,4.17
2023-04-06T03:40:45.045Z,3.67
2023-04-06T03:43:14.592Z,4.77
2023-04-06T03:45:43.120Z,4.40
2023-04-06T03:48:11.574Z,6.10
2023-04-06T03:50:40.013Z,4.77
2023-04-06T03:53:08.134Z,4.83
2023-04-06T03:55:36.603Z,7.93
2023-04-06T03:58:04.761Z,5.80
2023-04-06T04:00:34.283Z,4.33
2023-04-06T04:03:03.324Z,7.03
2023-04-06T04:05:31.657Z,4.37
2023-04-06T04:07:59.825Z,7.83
2023-04-06T04:10:27.959Z,8.63
2023-04-06T04:12:56.125Z,6.57
2023-04-06T04:15:24.292Z,5.03
2023-04-06T04:17:54.056Z,4.63
2023-04-06T04:20:22.555Z,7.40
2023-04-06T04:22:50.976Z,9.47
2023-04-06T04:25:19.395Z,6.37
2023-04-06T04:27:47.550Z,5.10
2023-04-06T04:30:16.637Z,5.53
2023-04-06T04:32:44.844Z,8.57
2023-04-06T04:35:14.957Z,11.33
2023-04-06T04:37:43.393Z,15.40
2023-04-06T04:40:12.574Z,10.53
2023-04-06T04:42:41.032Z,9.47
2023-04-06T04:45:09.825Z,5.77
2023-04-06T04:47:37.995Z,6.27
2023-04-06T04:50:07.313Z,8.00
2023-04-06T04:52:36.828Z,6.97
2023-04-06T04:55:05.395Z,7.33
2023-04-06T04:57:33.810Z,6.90
2023-04-06T05:00:03.128Z,6.67
2023-04-06T05:02:31.398Z,6.73
2023-04-06T05:04:59.606Z,9.93
2023-04-06T05:07:27.735Z,7.33
2023-04-06T05:09:57.646Z,10.70
2023-04-06T05:12:28.026Z,4.73
2023-04-06T05:14:56.539Z,11.17
2023-04-06T05:17:24.961Z,5.67
2023-04-06T05:19:53.541Z,4.90
2023-04-06T05:22:21.987Z,10.77
2023-04-06T05:24:50.132Z,8.90
2023-04-06T05:27:20.082Z,9.77
2023-04-06T05:29:48.215Z,6.17
2023-04-06T05:32:16.965Z,6.87
2023-04-06T05:34:45.134Z,7.40
2023-04-06T05:37:13.259Z,9.33
2023-04-06T05:39:41.583Z,5.87
2023-04-06T05:42:10.066Z,6.80
2023-04-06T05:44:41.097Z,8.07
2023-04-06T05:47:09.509Z,8.37
2023-04-06T05:49:38.077Z,8.87
2023-04-06T05:52:06.774Z,6.67
2023-04-06T05:54:35.320Z,6.03
2023-04-06T05:57:04.513Z,5.13
2023-04-06T05:59:33.283Z,8.37
2023-04-06T06:02:03.311Z,6.97
2023-04-06T06:04:32.651Z,8.38
2023-04-06T06:07:01.653Z,8.17
2023-04-06T06:09:30.154Z,5.45
2023-04-06T06:11:58.316Z,4.63
2023-04-06T06:14:26.955Z,6.30
2023-04-06T06:16:55.092Z,5.35
2023-04-06T06:19:24.692Z,3.83
2023-04-06T06:21:52.820Z,4.60
2023-04-06T06:24:21.175Z,5.55
2023-04-06T06:26:49.908Z,6.13
2023-04-06T06:29:18.068Z,7.30
2023-04-06T06:31:46.326Z,5.50
2023-04-06T06:34:14.853Z,5.65
2023-04-06T06:36:46.400Z,6.15
2023-04-06T06:39:15.804Z,5.25
2023-04-06T06:41:43.969Z,8.20
2023-04-06T06:44:12.154Z,7.18
2023-04-06T06:46:40.552Z,4.70
2023-04-06T06:49:09.049Z,6.78
2023-04-06T06:51:37.431Z,5.95
2023-04-06T06:54:07.308Z,6.82
2023-04-06T06:56:37.168Z,5.40
2023-04-06T06:59:05.495Z,5.32
2023-04-06T07:01:34.620Z,9.15
2023-04-06T07:04:03.040Z,4.78
2023-04-06T07:06:31.217Z,6.78
2023-04-06T07:08:59.438Z,9.32
2023-04-06T07:11:29.468Z,9.07
2023-04-06T07:13:57.728Z,8.13
2023-04-06T07:16:26.215Z,6.68
2023-04-06T07:18:54.403Z,6.70
2023-04-06T07:21:22.827Z,4.72
2023-04-06T07:23:51.824Z,6.28
2023-04-06T07:26:20.035Z,9.20
2023-04-06T07:28:49.614Z,6.45
2023-04-06T07:31:17.781Z,10.23
2023-04-06T07:33:46.046Z,8.45
2023-04-06T07:36:14.222Z,8.88
2023-04-06T07:38:42.712Z,5.55
2023-04-06T07:41:10.867Z,7.88
2023-04-06T07:43:39.612Z,8.32
2023-04-06T07:46:09.386Z,6.63
2023-04-06T07:48:38.920Z,8.45
2023-04-06T07:51:07.734Z,5.65
2023-04-06T07:53:35.912Z,7.00
2023-04-06T07:56:04.306Z,8.52
2023-04-06T07:58:32.493Z,6.68
2023-04-06T08:01:01.136Z,6.78
2023-04-06T08:03:30.890Z,8.15
2023-04-06T08:05:59.098Z,6.82
2023-04-06T08:08:27.290Z,6.60
2023-04-06T08:10:55.431Z,5.43
2023-04-06T08:13:23.936Z,6.40
2023-04-06T08:15:52.114Z,6.25
2023-04-06T08:18:20.600Z,6.47
2023-04-06T08:20:50.842Z,6.55
2023-04-06T08:23:19.484Z,7.03
2023-04-06T08:25:47.704Z,5.68
2023-04-06T08:28:16.244Z,7.25
2023-04-06T08:30:44.765Z,7.07
2023-04-06T08:33:13.379Z,7.78
2023-04-06T08:35:41.717Z,6.88
2023-04-06T08:38:11.284Z,5.30
2023-04-06T08:40:40.103Z,5.60
2023-04-06T08:43:12.544Z,6.85
2023-04-06T08:45:41.593Z,6.78
2023-04-06T08:48:10.740Z,6.15
2023-04-06T08:50:41.065Z,6.03
2023-04-06T08:53:10.592Z,4.70
2023-04-06T08:55:40.283Z,5.60
2023-04-06T08:58:10.166Z,10.30
2023-04-06T09:00:41.598Z,5.60
2023-04-06T09:03:11.166Z,5.82
2023-04-06T09:05:40.716Z,6.10
2023-04-06T09:08:10.424Z,4.78
2023-04-06T09:10:42.619Z,7.93
2023-04-06T09:13:11.082Z,7.55
2023-04-06T09:15:39.770Z,6.75
2023-04-06T09:18:09.035Z,7.10
2023-04-06T09:20:37.308Z,7.90
2023-04-06T09:23:05.493Z,7.68
2023-04-06T09:25:35.564Z,7.97
2023-04-06T09:28:07.890Z,5.10
2023-04-06T09:30:37.031Z,5.53
2023-04-06T09:33:05.349Z,7.60
2023-04-06T09:35:34.135Z,8.25
2023-04-06T09:38:13.187Z,6.72
2023-04-06T09:41:00.630Z,7.15
2023-04-06T09:43:30.105Z,5.25
2023-04-06T09:45:59.990Z,5.32
2023-04-06T09:48:29.921Z,6.57
2023-04-06T09:51:02.103Z,7.90
2023-04-06T09:53:33.780Z,6.60
2023-04-06T09:56:05.920Z,6.40
2023-04-06T09:58:38.945Z,6.40
2023-04-06T10:01:12.518Z,5.80
2023-04-06T10:03:47.956Z,7.68
2023-04-06T10:06:19.186Z,6.43
2023-04-06T10:08:50.028Z,7.65
2023-04-06T10:11:20.630Z,4.93
2023-04-06T10:13:51.108Z,9.15
2023-04-06T10:16:19.686Z,9.15
2023-04-06T10:18:54.282Z,5.18
2023-04-06T10:21:28.017Z,6.00
2023-04-06T10:24:00.965Z,6.43
2023-04-06T10:26:30.617Z,7.53
2023-04-06T10:29:05.875Z,6.95
2023-04-06T10:31:34.880Z,5.35
2023-04-06T10:34:04.886Z,7.47
2023-04-06T10:36:35.745Z,7.00
2023-04-06T10:39:05.604Z,6.03
2023-04-06T10:41:43.142Z,5.78
2023-04-06T10:44:22.297Z,6.07
2023-04-06T10:47:01.438Z,6.13
2023-04-06T10:49:30.060Z,7.03
2023-04-06T10:51:59.178Z,4.95
2023-04-06T10:54:29.081Z,6.65
2023-04-06T10:56:58.661Z,7.55
2023-04-06T10:59:27.848Z,4.75
2023-04-06T11:01:56.979Z,7.00
2023-04-06T11:04:25.506Z,4.28
2023-04-06T11:06:53.972Z,4.63
2023-04-06T11:09:29.601Z,5.13
2023-04-06T11:11:59.498Z,5.53
2023-04-06T11:14:28.334Z,9.02
2023-04-06T11:16:56.549Z,9.00
2023-04-06T11:19:25.191Z,4.07
2023-04-06T11:21:53.661Z,8.27
2023-04-06T11:24:23.416Z,5.57
2023-04-06T11:26:52.971Z,5.28
2023-04-06T11:29:24.223Z,5.95
2023-04-06T11:31:55.372Z,5.63
2023-04-06T11:34:25.394Z,5.35
2023-04-06T11:36:58.140Z,7.93
2023-04-06T11:39:27.845Z,6.97
2023-04-06T11:41:57.960Z,6.18
2023-04-06T11:44:35.313Z,5.88
2023-04-06T11:47:04.382Z,5.13
2023-04-06T11:49:33.765Z,6.63
2023-04-06T11:52:03.204Z,5.95
2023-04-06T11:54:35.827Z,6.38
2023-04-06T11:57:04.156Z,8.02
2023-04-06T11:59:34.417Z,11.18
2023-04-06T12:02:04.228Z,7.47
2023-04-06T12:04:32.927Z,6.47
2023-04-06T12:07:01.518Z,7.20
2023-04-06T12:09:29.910Z,6.50
2023-04-06T12:11:59.915Z,5.88
2023-04-06T12:14:28.160Z,6.15
2023-04-06T12:16:58.041Z,8.75
2023-04-06T12:19:26.943Z,5.93
2023-04-06T12:21:55.897Z,6.22
2023-04-06T12:24:24.059Z,5.47
2023-04-06T12:26:59.590Z,5.53
2023-04-06T12:29:31.336Z,6.63
2023-04-06T12:32:02.520Z,8.20
2023-04-06T12:34:31.233Z,7.53
2023-04-06T12:36:59.444Z,6.25
2023-04-06T12:39:29.476Z,4.97
2023-04-06T12:41:58.291Z,8.65
2023-04-06T12:44:27.031Z,6.07
2023-04-06T12:46:56.629Z,7.10
2023-04-06T12:49:26.574Z,5.82
2023-04-06T12:51:55.055Z,6.57
2023-04-06T12:54:23.542Z,7.88
2023-04-06T12:56:51.689Z,5.70
2023-04-06T12:59:19.871Z,7.93
2023-04-06T13:01:48.303Z,7.55
2023-04-06T13:04:16.578Z,7.53
2023-04-06T13:06:46.248Z,6.07
2023-04-06T13:09:14.738Z,6.90
2023-04-06T13:11:43.141Z,6.10
2023-04-06T13:14:11.727Z,7.68
2023-04-06T13:16:39.983Z,5.32
2023-04-06T13:19:08.105Z,7.88
2023-04-06T13:21:36.504Z,8.48
2023-04-06T13:24:07.566Z,6.75
2023-04-06T13:26:36.320Z,7.18
2023-04-06T13:29:04.887Z,8.05
2023-04-06T13:31:33.194Z,7.18
2023-04-06T13:34:01.677Z,8.43
2023-04-06T13:36:29.828Z,5.40
2023-04-06T13:38:58.298Z,6.65
2023-04-06T13:41:28.487Z,7.18
2023-04-06T13:43:56.647Z,6.47
2023-04-06T13:46:25.475Z,8.48
2023-04-06T13:48:53.676Z,6.65
2023-04-06T13:51:22.218Z,5.97
2023-04-06T13:53:53.567Z,7.82
2023-04-06T13:56:22.439Z,7.35
2023-04-06T13:58:52.274Z,6.78
2023-04-06T14:01:20.780Z,6.63
2023-04-06T14:03:50.916Z,8.10
2023-04-06T14:08:50.391Z,8.15
2023-04-06T14:11:18.596Z,8.75
2023-04-06T14:13:47.423Z,8.63
2023-04-06T14:16:20.777Z,6.82
2023-04-06T14:18:48.920Z,5.38
2023-04-06T14:21:17.209Z,4.75
2023-04-06T14:23:45.733Z,8.27
2023-04-06T14:26:13.977Z,7.38
2023-04-06T14:28:42.378Z,6.70
2023-04-06T14:31:17.250Z,6.00
2023-04-06T14:33:45.812Z,6.35
2023-04-06T14:36:14.230Z,6.57
2023-04-06T14:38:44.256Z,8.43
2023-04-06T14:41:18.592Z,6.30
2023-04-06T14:43:47.671Z,6.32
2023-04-06T14:46:17.912Z,5.25
2023-04-06T14:48:46.150Z,5.53
2023-04-06T14:51:14.582Z,5.78
2023-04-06T14:53:42.869Z,5.22
2023-04-06T14:56:11.108Z,5.88
2023-04-06T14:58:39.478Z,9.15
2023-04-06T15:01:09.432Z,6.28
2023-04-06T15:03:39.418Z,5.53
2023-04-06T15:06:08.103Z,6.45
2023-04-06T15:08:36.212Z,6.10
2023-04-06T15:11:04.295Z,5.78
2023-04-06T15:13:32.758Z,5.45
2023-04-06T15:16:02.064Z,5.47
2023-04-06T15:18:30.851Z,4.90
2023-04-06T15:21:00.353Z,4.80
2023-04-06T15:23:30.915Z,4.72
2023-04-06T15:25:59.425Z,5.65
2023-04-06T15:28:28.046Z,6.50
2023-04-06T15:30:56.389Z,5.80
2023-04-06T15:33:24.570Z,4.95
2023-04-06T15:35:53.029Z,5.57
2023-04-06T15:38:22.850Z,4.72
2023-04-06T15:40:51.656Z,7.07
2023-04-06T15:43:19.789Z,6.72
2023-04-06T15:45:47.945Z,5.97
2023-04-06T15:48:16.033Z,4.63
2023-04-06T15:50:44.422Z,5.25
2023-04-06T15:53:13.074Z,4.13
2023-04-06T15:55:42.590Z,6.60
2023-04-06T15:58:11.053Z,6.80
2023-04-06T16:00:39.124Z,7.22
2023-04-06T16:03:07.793Z,5.53
2023-04-06T16:05:48.559Z,8.77
2023-04-06T16:08:24.712Z,4.80
2023-04-06T16:10:54.171Z,4.93
2023-04-06T16:13:22.883Z,5.35
2023-04-06T16:15:51.511Z,4.43
2023-04-06T16:18:19.783Z,4.72
2023-04-06T16:20:48.227Z,7.07
2023-04-06T16:23:16.610Z,7.40
2023-04-06T16:25:44.826Z,5.85
2023-04-06T16:28:14.656Z,4.93
2023-04-06T16:30:45.702Z,6.38
2023-04-06T16:33:16.999Z,5.95
2023-04-06T16:35:45.767Z,9.50
2023-04-06T16:38:14.693Z,6.97
2023-04-06T16:40:42.906Z,6.65
2023-04-06T16:43:11.276Z,6.18
2023-04-06T16:45:41.215Z,5.85
2023-04-06T16:48:09.434Z,7.30
2023-04-06T16:50:37.711Z,8.38
2023-04-06T16:53:05.849Z,6.30
2023-04-06T16:55:34.236Z,7.70
2023-04-06T16:58:02.347Z,8.88
2023-04-06T17:00:30.750Z,6.65
2023-04-06T17:03:00.670Z,7.43
2023-04-06T17:05:29.267Z,7.43
2023-04-06T17:07:57.436Z,6.57
2023-04-06T17:10:33.192Z,7.00
2023-04-06T17:13:02.457Z,7.60
2023-04-06T17:15:32.012Z,9.13
2023-04-06T17:18:01.556Z,8.13
2023-04-06T17:20:29.700Z,5.88
2023-04-06T17:22:58.312Z,6.80
2023-04-06T17:25:26.404Z,6.35
2023-04-06T17:27:54.538Z,6.65
2023-04-06T17:30:22.735Z,10.60
2023-04-06T17:32:50.882Z,7.07
2023-04-06T17:35:20.867Z,7.30
2023-04-06T17:37:49.171Z,7.50
2023-04-06T17:40:17.375Z,6.22
2023-04-06T17:42:45.752Z,8.25
2023-04-06T17:45:14.021Z,7.72
2023-04-06T17:47:42.463Z,7.88
2023-04-06T17:50:11.518Z,8.77
2023-04-06T17:52:42.207Z,8.13
2023-04-06T17:55:10.696Z,8.80
2023-04-06T17:57:41.126Z,13.00
2023-04-06T18:00:12.116Z,7.57
2023-04-06T18:02:40.318Z,8.02
2023-04-06T18:05:09.159Z,10.50
2023-04-06T18:07:37.484Z,12.73
2023-04-06T18:10:08.434Z,10.90
2023-04-06T18:12:36.557Z,10.98
2023-04-06T18:15:04.910Z,10.73
2023-04-06T18:17:33.536Z,10.07
2023-04-06T18:20:01.717Z,9.25
2023-04-06T18:22:29.900Z,10.15
2023-04-06T18:24:59.456Z,9.57
2023-04-06T18:27:29.045Z,7.47
2023-04-06T18:29:59.773Z,8.65
2023-04-06T18:32:30.354Z,9.75
2023-04-06T18:34:58.721Z,7.78
2023-04-06T18:37:27.300Z,7.35
2023-04-06T18:39:55.774Z,9.27
2023-04-06T18:42:23.865Z,8.38
2023-04-06T18:44:53.345Z,8.88
2023-04-06T18:47:21.975Z,12.10
2023-04-06T18:49:50.741Z,10.50
2023-04-06T18:52:18.812Z,10.40
2023-04-06T18:54:46.920Z,7.30
2023-04-06T18:57:15.319Z,8.57
2023-04-06T18:59:43.673Z,12.52
2023-04-06T19:02:14.408Z,11.73
2023-04-06T19:04:42.866Z,7.55
2023-04-06T19:07:11.161Z,11.65
2023-04-06T19:09:39.562Z,10.25
2023-04-06T19:12:07.640Z,9.75
2023-04-06T19:14:35.981Z,10.13
2023-04-06T19:17:04.151Z,8.70
2023-04-06T19:19:33.918Z,11.43
2023-04-06T19:22:01.990Z,10.68
2023-04-06T19:24:30.128Z,8.15
2023-04-06T19:26:58.330Z,15.48
2023-04-06T19:29:26.640Z,11.27
2023-04-06T19:31:55.734Z,9.32
2023-04-06T19:34:24.585Z,10.27
2023-04-06T19:36:54.501Z,10.90
2023-04-06T19:39:22.584Z,10.30
2023-04-06T19:41:50.708Z,11.63
2023-04-06T19:44:19.215Z,10.60
2023-04-06T19:46:48.099Z,10.85
2023-04-06T19:49:16.376Z,11.98
2023-04-06T19:51:44.952Z,11.70
2023-04-06T19:54:14.619Z,10.00
2023-04-06T19:56:42.752Z,11.05
2023-04-06T19:59:11.720Z,10.15
2023-04-06T20:01:39.913Z,13.18
2023-04-06T20:04:08.427Z,10.25
2023-04-06T20:06:36.939Z,10.90
2023-04-06T20:09:05.434Z,10.50
2023-04-06T20:11:36.760Z,11.00
2023-04-06T20:14:05.179Z,14.93
2023-04-06T20:16:33.768Z,14.15
2023-04-06T20:19:02.139Z,11.25
2023-04-06T20:21:30.251Z,12.60
2023-04-06T20:23:58.880Z,9.30
2023-04-06T20:26:27.154Z,12.13
2023-04-06T20:28:56.648Z,10.55
2023-04-06T20:31:27.507Z,11.15
2023-04-06T20:33:56.158Z,9.82
2023-04-06T20:36:24.745Z,11.88
2023-04-06T20:38:52.853Z,9.38
2023-04-06T20:41:21.912Z,12.20
2023-04-06T20:43:50.118Z,10.13
2023-04-06T20:46:19.809Z,11.63
2023-04-06T20:48:48.307Z,10.13
2023-04-06T20:51:20.721Z,11.02
2023-04-06T20:53:48.890Z,10.73
2023-04-06T20:56:17.601Z,11.93
2023-04-06T20:58:45.925Z,10.60
2023-04-06T21:01:15.682Z,10.00
2023-04-06T21:03:45.950Z,11.98
2023-04-06T21:06:14.205Z,10.35
2023-04-06T21:08:42.312Z,11.75
2023-04-06T21:11:10.709Z,11.52
2023-04-06T21:13:38.866Z,10.40
2023-04-06T21:16:07.573Z,8.80
2023-04-06T21:18:35.968Z,8.77
2023-04-06T21:21:05.981Z,10.48
2023-04-06T21:23:34.138Z,11.60
2023-04-06T21:26:02.290Z,10.95
2023-04-06T21:28:30.690Z,12.35
2023-04-06T21:30:59.103Z,9.65
2023-04-06T21:33:27.344Z,11.40
2023-04-06T21:35:55.425Z,12.63
2023-04-06T21:38:25.352Z,8.82
2023-04-06T21:40:56.904Z,13.18
2023-04-06T21:43:25.075Z,10.57
2023-04-06T21:45:53.492Z,9.40
2023-04-06T21:48:22.088Z,11.25
2023-04-06T21:50:50.302Z,9.55
2023-04-06T21:53:18.463Z,10.73
2023-04-06T21:55:48.786Z,10.85
2023-04-06T21:58:16.907Z,9.98
2023-04-06T22:00:45.041Z,9.90
2023-04-06T22:03:13.418Z,10.95
2023-04-06T22:05:41.571Z,9.25
2023-04-06T22:08:15.108Z,13.00
2023-04-06T22:10:47.618Z,11.35
2023-04-06T22:13:15.952Z,11.98
2023-04-06T22:15:44.024Z,9.00
2023-04-06T22:18:12.142Z,11.27
2023-04-06T22:20:40.439Z,10.63
2023-04-06T22:23:08.610Z,11.57
2023-04-06T22:25:36.767Z,10.98
2023-04-06T22:28:07.092Z,10.15
2023-04-06T22:30:35.302Z,13.55
2023-04-06T22:33:03.850Z,9.02
2023-04-06T22:35:32.129Z,14.10
2023-04-06T22:38:01.220Z,11.73
2023-04-06T22:40:29.496Z,10.15
2023-04-06T22:42:57.912Z,14.85
2023-04-06T22:45:27.437Z,10.43
2023-04-06T22:47:55.619Z,11.23
2023-04-06T22:50:23.791Z,13.90
2023-04-06T22:52:52.171Z,14.00
2023-04-06T22:55:20.386Z,15.43
2023-04-06T22:57:48.470Z,16.40
2023-04-06T23:00:16.970Z,14.27
2023-04-06T23:02:46.778Z,13.88
2023-04-06T23:05:15.396Z,13.20
2023-04-06T23:07:43.502Z,16.00
2023-04-06T23:10:12.062Z,12.13
2023-04-06T23:12:40.240Z,12.45
2023-04-06T23:15:09.764Z,11.73
2023-04-06T23:17:37.918Z,12.38
2023-04-06T23:20:09.004Z,12.82
2023-04-06T23:22:37.124Z,11.32
2023-04-06T23:25:05.743Z,12.32
2023-04-06T23:27:33.866Z,11.18
2023-04-06T23:30:02.226Z,16.13
2023-04-06T23:32:30.853Z,11.52
2023-04-06T23:34:58.969Z,12.63
2023-04-06T23:37:28.874Z,14.00
2023-04-06T23:39:56.965Z,13.20
2023-04-06T23:42:28.737Z,14.48
2023-04-06T23:44:57.590Z,11.60
2023-04-06T23:47:25.743Z,12.65
2023-04-06T23:49:53.884Z,11.77
2023-04-06T23:52:22.238Z,11.15
2023-04-06T23:54:51.963Z,10.35
2023-04-06T23:57:20.306Z,10.38
2023-04-06T23:59:48.718Z,12.57
